sensor_id;sensor_type;location;lat;lon;timestamp;pressure;altitude;pressure_sealevel;temperature;humidity
4410;BME280;2218;51.408;7.208;2023-04-15T00:02:20;98949.38;;;19.67;34.98
4410;BME280;2218;51.408;7.208;2023-04-15T00:04:47;98945.91;;;19.66;35.13
4410;BME280;2218;51.408;7.208;2023-04-15T00:07:14;98952.16;;;19.65;35.25
4410;BME280;2218;51.408;7.208;2023-04-15T00:09:42;98946.88;;;19.65;34.90
4410;BME280;2218;51.408;7.208;2023-04-15T00:12:10;98941.63;;;19.65;34.95
4410;BME280;2218;51.408;7.208;2023-04-15T00:14:37;98939.91;;;19.64;35.15
4410;BME280;2218;51.408;7.208;2023-04-15T00:17:04;98944.50;;;19.62;34.88
4410;BME280;2218;51.408;7.208;2023-04-15T00:19:33;98943.53;;;19.63;35.16
4410;BME280;2218;51.408;7.208;2023-04-15T00:22:00;98948.78;;;19.63;35.23
4410;BME280;2218;51.408;7.208;2023-04-15T00:24:27;98943.53;;;19.63;35.13
4410;BME280;2218;51.408;7.208;2023-04-15T00:26:54;98948.78;;;19.63;34.96
4410;BME280;2218;51.408;7.208;2023-04-15T00:29:21;98942.69;;;19.62;35.32
4410;BME280;2218;51.408;7.208;2023-04-15T00:31:48;98946.28;;;19.61;35.03
4410;BME280;2218;51.408;7.208;2023-04-15T00:34:14;98941.03;;;19.61;34.95
4410;BME280;2218;51.408;7.208;2023-04-15T00:36:43;98947.25;;;19.60;34.96
4410;BME280;2218;51.408;7.208;2023-04-15T00:39:11;98942.97;;;19.59;35.25
4410;BME280;2218;51.408;7.208;2023-04-15T00:41:38;98942.97;;;19.59;35.19
4410;BME280;2218;51.408;7.208;2023-04-15T00:44:05;98942.97;;;19.59;35.09
4410;BME280;2218;51.408;7.208;2023-04-15T00:46:36;98940.41;;;19.58;35.30
4410;BME280;2218;51.408;7.208;2023-04-15T00:49:05;98940.41;;;19.58;35.12
4410;BME280;2218;51.408;7.208;2023-04-15T00:51:33;98936.09;;;19.57;35.33
4410;BME280;2218;51.408;7.208;2023-04-15T00:54:04;98938.75;;;19.57;35.28
4410;BME280;2218;51.408;7.208;2023-04-15T00:56:35;98937.91;;;19.56;35.12
4410;BME280;2218;51.408;7.208;2023-04-15T00:59:03;98934.44;;;19.56;35.41
4410;BME280;2218;51.408;7.208;2023-04-15T01:01:32;98935.41;;;19.55;35.29
4410;BME280;2218;51.408;7.208;2023-04-15T01:04:01;98939.84;;;19.54;35.37
4410;BME280;2218;51.408;7.208;2023-04-15T01:06:29;98944.25;;;19.54;35.50
4410;BME280;2218;51.408;7.208;2023-04-15T01:08:57;98946.88;;;19.54;35.46
4410;BME280;2218;51.408;7.208;2023-04-15T01:11:26;98943.41;;;19.53;35.58
4410;BME280;2218;51.408;7.208;2023-04-15T01:13:55;98942.56;;;19.53;35.48
4410;BME280;2218;51.408;7.208;2023-04-15T01:16:25;98939.94;;;19.53;35.63
4410;BME280;2218;51.408;7.208;2023-04-15T01:18:53;98937.31;;;19.53;35.63
4410;BME280;2218;51.408;7.208;2023-04-15T01:21:22;98944.53;;;19.51;35.62
4410;BME280;2218;51.408;7.208;2023-04-15T01:23:51;98944.53;;;19.51;35.63
4410;BME280;2218;51.408;7.208;2023-04-15T01:26:21;98944.53;;;19.51;35.63
4410;BME280;2218;51.408;7.208;2023-04-15T01:28:48;98948.13;;;19.50;35.47
4410;BME280;2218;51.408;7.208;2023-04-15T01:31:16;98945.50;;;19.50;35.57
4410;BME280;2218;51.408;7.208;2023-04-15T01:33:43;98938.53;;;19.49;35.60
4410;BME280;2218;51.408;7.208;2023-04-15T01:36:10;98935.88;;;19.49;35.68
4410;BME280;2218;51.408;7.208;2023-04-15T01:38:37;98936.84;;;19.48;35.69
4410;BME280;2218;51.408;7.208;2023-04-15T01:41:04;98933.38;;;19.47;35.54
4410;BME280;2218;51.408;7.208;2023-04-15T01:43:34;98937.81;;;19.47;35.76
4410;BME280;2218;51.408;7.208;2023-04-15T01:46:01;98940.47;;;19.47;35.60
4410;BME280;2218;51.408;7.208;2023-04-15T01:48:31;98943.09;;;19.47;35.77
4410;BME280;2218;51.408;7.208;2023-04-15T01:50:58;98945.72;;;19.47;35.87
4410;BME280;2218;51.408;7.208;2023-04-15T01:53:26;98943.09;;;19.47;35.83
4410;BME280;2218;51.408;7.208;2023-04-15T01:55:53;98944.06;;;19.46;35.61
4410;BME280;2218;51.408;7.208;2023-04-15T01:58:20;98938.91;;;19.44;35.56
4410;BME280;2218;51.408;7.208;2023-04-15T02:00:48;98944.16;;;19.44;35.93
4410;BME280;2218;51.408;7.208;2023-04-15T02:03:15;98938.06;;;19.44;35.76
4410;BME280;2218;51.408;7.208;2023-04-15T02:05:42;98940.84;;;19.42;35.94
4410;BME280;2218;51.408;7.208;2023-04-15T02:08:10;98942.50;;;19.43;35.87
4410;BME280;2218;51.408;7.208;2023-04-15T02:10:37;98940.84;;;19.42;35.62
4410;BME280;2218;51.408;7.208;2023-04-15T02:13:04;98944.31;;;19.43;35.90
4410;BME280;2218;51.408;7.208;2023-04-15T02:15:31;98949.72;;;19.41;35.80
4410;BME280;2218;51.408;7.208;2023-04-15T02:18:00;98940.97;;;19.41;35.88
4410;BME280;2218;51.408;7.208;2023-04-15T02:20:27;98947.22;;;19.40;35.83
4410;BME280;2218;51.408;7.208;2023-04-15T02:22:57;98948.03;;;19.40;35.94
4410;BME280;2218;51.408;7.208;2023-04-15T02:25:24;98959.41;;;19.41;35.85
4410;BME280;2218;51.408;7.208;2023-04-15T02:27:50;98969.13;;;19.40;35.92
4410;BME280;2218;51.408;7.208;2023-04-15T02:30:18;98968.28;;;19.40;35.70
4410;BME280;2218;51.408;7.208;2023-04-15T02:32:45;98963.94;;;19.38;35.91
4410;BME280;2218;51.408;7.208;2023-04-15T02:35:14;98966.59;;;19.38;35.95
4410;BME280;2218;51.408;7.208;2023-04-15T02:37:44;98959.66;;;19.37;35.95
4410;BME280;2218;51.408;7.208;2023-04-15T02:40:12;98968.38;;;19.38;35.84
4410;BME280;2218;51.408;7.208;2023-04-15T02:42:40;98974.50;;;19.38;35.96
4410;BME280;2218;51.408;7.208;2023-04-15T02:45:11;98962.41;;;19.36;36.05
4410;BME280;2218;51.408;7.208;2023-04-15T02:47:39;98966.84;;;19.35;36.02
4410;BME280;2218;51.408;7.208;2023-04-15T02:50:11;98971.28;;;19.35;36.14
4410;BME280;2218;51.408;7.208;2023-04-15T02:52:42;98962.56;;;19.34;36.01
4410;BME280;2218;51.408;7.208;2023-04-15T02:55:09;98973.09;;;19.34;36.14
4410;BME280;2218;51.408;7.208;2023-04-15T02:57:37;98979.19;;;19.35;35.80
4410;BME280;2218;51.408;7.208;2023-04-15T03:00:08;98984.56;;;19.33;35.90
4410;BME280;2218;51.408;7.208;2023-04-15T03:02:39;98983.63;;;19.34;36.08
4410;BME280;2218;51.408;7.208;2023-04-15T03:05:12;98991.53;;;19.34;35.97
4410;BME280;2218;51.408;7.208;2023-04-15T03:07:44;98989.84;;;19.33;36.00
4410;BME280;2218;51.408;7.208;2023-04-15T03:10:11;98988.16;;;19.32;36.06
4410;BME280;2218;51.408;7.208;2023-04-15T03:12:39;98992.75;;;19.30;35.95
4410;BME280;2218;51.408;7.208;2023-04-15T03:15:09;98985.66;;;19.31;36.02
4410;BME280;2218;51.408;7.208;2023-04-15T03:17:41;98988.44;;;19.29;36.03
4410;BME280;2218;51.408;7.208;2023-04-15T03:20:08;98992.75;;;19.30;36.26
4410;BME280;2218;51.408;7.208;2023-04-15T03:22:35;98986.63;;;19.30;35.99
4410;BME280;2218;51.408;7.208;2023-04-15T03:25:05;98995.38;;;19.30;36.26
4410;BME280;2218;51.408;7.208;2023-04-15T03:27:32;98992.00;;;19.28;35.97
4410;BME280;2218;51.408;7.208;2023-04-15T03:30:01;98994.63;;;19.28;36.33
4410;BME280;2218;51.408;7.208;2023-04-15T03:32:31;99002.53;;;19.28;36.10
4410;BME280;2218;51.408;7.208;2023-04-15T03:34:58;98998.25;;;19.27;36.25
4410;BME280;2218;51.408;7.208;2023-04-15T03:37:25;98998.25;;;19.27;36.19
4410;BME280;2218;51.408;7.208;2023-04-15T03:39:52;99000.03;;;19.27;36.29
4410;BME280;2218;51.408;7.208;2023-04-15T03:42:20;99006.16;;;19.27;36.21
4410;BME280;2218;51.408;7.208;2023-04-15T03:44:47;99010.72;;;19.25;36.44
4410;BME280;2218;51.408;7.208;2023-04-15T03:47:14;99013.34;;;19.25;36.15
4410;BME280;2218;51.408;7.208;2023-04-15T03:49:41;99005.53;;;19.24;36.37
4410;BME280;2218;51.408;7.208;2023-04-15T03:52:08;99011.66;;;19.24;36.53
4410;BME280;2218;51.408;7.208;2023-04-15T03:54:35;99011.66;;;19.24;36.31
4410;BME280;2218;51.408;7.208;2023-04-15T03:57:02;99010.81;;;19.24;36.32
4410;BME280;2218;51.408;7.208;2023-04-15T03:59:30;99009.16;;;19.23;36.23
4410;BME280;2218;51.408;7.208;2023-04-15T04:01:57;99007.47;;;19.22;36.34
4410;BME280;2218;51.408;7.208;2023-04-15T04:04:24;99005.81;;;19.21;36.37
4410;BME280;2218;51.408;7.208;2023-04-15T04:06:51;99013.72;;;19.21;36.49
4410;BME280;2218;51.408;7.208;2023-04-15T04:09:18;99022.44;;;19.21;36.41
4410;BME280;2218;51.408;7.208;2023-04-15T04:11:45;99020.78;;;19.20;36.31
4410;BME280;2218;51.408;7.208;2023-04-15T04:14:12;99024.25;;;19.21;36.43
4410;BME280;2218;51.408;7.208;2023-04-15T04:16:40;99024.34;;;19.19;36.32
4410;BME280;2218;51.408;7.208;2023-04-15T04:19:07;99023.50;;;19.19;36.48
4410;BME280;2218;51.408;7.208;2023-04-15T04:21:34;99021.84;;;19.18;36.26
4410;BME280;2218;51.408;7.208;2023-04-15T04:24:01;99027.94;;;19.18;36.43
4410;BME280;2218;51.408;7.208;2023-04-15T04:26:28;99027.94;;;19.18;36.49
4410;BME280;2218;51.408;7.208;2023-04-15T04:28:55;99034.19;;;19.17;36.41
4410;BME280;2218;51.408;7.208;2023-04-15T04:31:22;99036.81;;;19.17;36.63
4410;BME280;2218;51.408;7.208;2023-04-15T04:33:50;99034.31;;;19.16;36.38
4410;BME280;2218;51.408;7.208;2023-04-15T04:36:17;99030.00;;;19.15;36.34
4410;BME280;2218;51.408;7.208;2023-04-15T04:38:44;99035.28;;;19.15;36.43
4410;BME280;2218;51.408;7.208;2023-04-15T04:41:11;99030.00;;;19.15;36.77
4410;BME280;2218;51.408;7.208;2023-04-15T04:43:38;99035.28;;;19.15;36.51
4410;BME280;2218;51.408;7.208;2023-04-15T04:46:05;99042.31;;;19.14;36.61
4410;BME280;2218;51.408;7.208;2023-04-15T04:48:31;99039.81;;;19.13;36.60
4410;BME280;2218;51.408;7.208;2023-04-15T04:51:00;99049.28;;;19.15;36.62
4410;BME280;2218;51.408;7.208;2023-04-15T04:53:27;99058.13;;;19.14;36.54
4410;BME280;2218;51.408;7.208;2023-04-15T04:55:54;99061.72;;;19.13;36.66
4410;BME280;2218;51.408;7.208;2023-04-15T04:58:21;99062.69;;;19.12;36.67
4410;BME280;2218;51.408;7.208;2023-04-15T05:00:48;99072.25;;;19.13;36.84
4410;BME280;2218;51.408;7.208;2023-04-15T05:03:15;99067.94;;;19.12;36.83
4410;BME280;2218;51.408;7.208;2023-04-15T05:05:42;99065.31;;;19.12;36.67
4410;BME280;2218;51.408;7.208;2023-04-15T05:08:10;99073.22;;;19.12;36.80
4410;BME280;2218;51.408;7.208;2023-04-15T05:10:37;99063.66;;;19.11;36.77
4410;BME280;2218;51.408;7.208;2023-04-15T05:13:04;99069.75;;;19.11;36.69
4410;BME280;2218;51.408;7.208;2023-04-15T05:15:31;99074.19;;;19.11;36.64
4410;BME280;2218;51.408;7.208;2023-04-15T05:17:59;99073.34;;;19.10;36.55
4410;BME280;2218;51.408;7.208;2023-04-15T05:20:27;99075.00;;;19.11;36.60
4410;BME280;2218;51.408;7.208;2023-04-15T05:22:54;99083.88;;;19.10;36.86
4410;BME280;2218;51.408;7.208;2023-04-15T05:25:22;99086.63;;;19.09;36.90
4410;BME280;2218;51.408;7.208;2023-04-15T05:27:50;99083.03;;;19.10;36.96
4410;BME280;2218;51.408;7.208;2023-04-15T05:30:17;99086.63;;;19.09;36.72
4410;BME280;2218;51.408;7.208;2023-04-15T05:32:43;99082.22;;;19.09;36.96
4410;BME280;2218;51.408;7.208;2023-04-15T05:35:10;99091.03;;;19.08;36.79
4410;BME280;2218;51.408;7.208;2023-04-15T05:37:37;99101.47;;;19.10;36.86
4410;BME280;2218;51.408;7.208;2023-04-15T05:40:05;99098.00;;;19.09;37.06
4410;BME280;2218;51.408;7.208;2023-04-15T05:42:36;99099.78;;;19.09;36.79
4410;BME280;2218;51.408;7.208;2023-04-15T05:45:04;99107.69;;;19.09;37.10
4410;BME280;2218;51.408;7.208;2023-04-15T05:47:34;99112.25;;;19.07;36.89
4410;BME280;2218;51.408;7.208;2023-04-15T05:50:01;99118.22;;;19.09;36.86
4410;BME280;2218;51.408;7.208;2023-04-15T05:52:28;99119.91;;;19.10;37.21
4410;BME280;2218;51.408;7.208;2023-04-15T05:54:55;99118.13;;;19.10;36.74
4410;BME280;2218;51.408;7.208;2023-04-15T05:57:22;99124.34;;;19.09;36.94
4410;BME280;2218;51.408;7.208;2023-04-15T05:59:50;99130.44;;;19.10;37.02
4410;BME280;2218;51.408;7.208;2023-04-15T06:02:18;99131.38;;;19.09;36.86
4410;BME280;2218;51.408;7.208;2023-04-15T06:04:45;99128.75;;;19.09;36.66
4410;BME280;2218;51.408;7.208;2023-04-15T06:07:12;99134.03;;;19.09;37.20
4410;BME280;2218;51.408;7.208;2023-04-15T06:09:38;99135.72;;;19.10;36.85
4410;BME280;2218;51.408;7.208;2023-04-15T06:12:05;99145.41;;;19.09;36.98
4410;BME280;2218;51.408;7.208;2023-04-15T06:14:36;99134.88;;;19.09;36.89
4410;BME280;2218;51.408;7.208;2023-04-15T06:17:05;99148.06;;;19.09;36.86
4410;BME280;2218;51.408;7.208;2023-04-15T06:19:32;99144.56;;;19.09;36.83
4410;BME280;2218;51.408;7.208;2023-04-15T06:21:59;99137.63;;;19.08;37.21
4410;BME280;2218;51.408;7.208;2023-04-15T06:24:26;99154.16;;;19.10;37.04
4410;BME280;2218;51.408;7.208;2023-04-15T06:26:54;99151.53;;;19.10;37.36
4410;BME280;2218;51.408;7.208;2023-04-15T06:29:21;99155.09;;;19.09;37.33
4410;BME280;2218;51.408;7.208;2023-04-15T06:31:48;99155.94;;;19.09;37.38
4410;BME280;2218;51.408;7.208;2023-04-15T06:34:17;99163.84;;;19.09;37.42
4410;BME280;2218;51.408;7.208;2023-04-15T06:36:43;99163.72;;;19.11;37.05
4410;BME280;2218;51.408;7.208;2023-04-15T06:39:11;99163.72;;;19.11;37.21
4410;BME280;2218;51.408;7.208;2023-04-15T06:41:38;99170.66;;;19.12;37.34
4410;BME280;2218;51.408;7.208;2023-04-15T06:44:05;99172.34;;;19.13;37.19
4410;BME280;2218;51.408;7.208;2023-04-15T06:46:32;99180.13;;;19.15;37.16
4410;BME280;2218;51.408;7.208;2023-04-15T06:48:59;99179.28;;;19.14;37.30
4410;BME280;2218;51.408;7.208;2023-04-15T06:51:27;99177.50;;;19.15;37.19
4410;BME280;2218;51.408;7.208;2023-04-15T06:53:54;99180.97;;;19.15;37.41
4410;BME280;2218;51.408;7.208;2023-04-15T06:56:21;99179.19;;;19.16;37.42
4410;BME280;2218;51.408;7.208;2023-04-15T06:58:48;99185.28;;;19.16;37.14
4410;BME280;2218;51.408;7.208;2023-04-15T07:01:15;99180.00;;;19.16;37.38
4410;BME280;2218;51.408;7.208;2023-04-15T07:03:42;99186.25;;;19.15;37.09
4410;BME280;2218;51.408;7.208;2023-04-15T07:06:09;99184.53;;;19.14;37.49
4410;BME280;2218;51.408;7.208;2023-04-15T07:08:37;99191.50;;;19.15;37.47
4410;BME280;2218;51.408;7.208;2023-04-15T07:11:04;99190.69;;;19.15;37.43
4410;BME280;2218;51.408;7.208;2023-04-15T07:13:33;99192.34;;;19.16;37.52
4410;BME280;2218;51.408;7.208;2023-04-15T07:16:00;99188.97;;;19.14;37.50
4410;BME280;2218;51.408;7.208;2023-04-15T07:18:27;99196.78;;;19.15;37.56
4410;BME280;2218;51.408;7.208;2023-04-15T07:20:54;99189.81;;;19.14;37.34
4410;BME280;2218;51.408;7.208;2023-04-15T07:23:20;99194.16;;;19.15;37.31
4410;BME280;2218;51.408;7.208;2023-04-15T07:25:49;99198.69;;;19.13;37.26
4410;BME280;2218;51.408;7.208;2023-04-15T07:28:16;99196.88;;;19.14;37.50
4410;BME280;2218;51.408;7.208;2023-04-15T07:30:43;99200.34;;;19.14;37.67
4410;BME280;2218;51.408;7.208;2023-04-15T07:33:11;99202.06;;;19.15;37.34
4410;BME280;2218;51.408;7.208;2023-04-15T07:35:37;99202.16;;;19.14;37.42
4410;BME280;2218;51.408;7.208;2023-04-15T07:38:04;99205.63;;;19.14;37.41
4410;BME280;2218;51.408;7.208;2023-04-15T07:40:31;99204.69;;;19.15;37.55
4410;BME280;2218;51.408;7.208;2023-04-15T07:43:00;99206.47;;;19.15;37.55
4410;BME280;2218;51.408;7.208;2023-04-15T07:45:28;99210.03;;;19.14;37.79
4410;BME280;2218;51.408;7.208;2023-04-15T07:47:54;99209.13;;;19.15;37.63
4410;BME280;2218;51.408;7.208;2023-04-15T07:50:22;99218.78;;;19.14;37.56
4410;BME280;2218;51.408;7.208;2023-04-15T07:52:49;99214.47;;;19.13;37.66
4410;BME280;2218;51.408;7.208;2023-04-15T07:55:18;99215.31;;;19.14;37.86
4410;BME280;2218;51.408;7.208;2023-04-15T07:57:48;99221.41;;;19.14;37.72
4410;BME280;2218;51.408;7.208;2023-04-15T08:00:17;99214.47;;;19.13;37.60
4410;BME280;2218;51.408;7.208;2023-04-15T08:02:44;99215.31;;;19.14;37.58
4410;BME280;2218;51.408;7.208;2023-04-15T08:05:13;99223.13;;;19.15;37.95
4410;BME280;2218;51.408;7.208;2023-04-15T08:07:40;99213.50;;;19.14;37.65
4410;BME280;2218;51.408;7.208;2023-04-15T08:10:07;99212.69;;;19.14;37.74
4410;BME280;2218;51.408;7.208;2023-04-15T08:12:35;99223.13;;;19.15;37.72
4410;BME280;2218;51.408;7.208;2023-04-15T08:15:03;99222.16;;;19.16;37.68
4410;BME280;2218;51.408;7.208;2023-04-15T08:17:31;99219.53;;;19.16;38.21
4410;BME280;2218;51.408;7.208;2023-04-15T08:19:58;99222.16;;;19.16;38.05
4410;BME280;2218;51.408;7.208;2023-04-15T08:22:25;99224.78;;;19.16;37.89
4410;BME280;2218;51.408;7.208;2023-04-15T08:24:53;99220.34;;;19.17;37.68
4410;BME280;2218;51.408;7.208;2023-04-15T08:27:20;99226.47;;;19.17;38.04
4410;BME280;2218;51.408;7.208;2023-04-15T08:29:46;99226.47;;;19.17;37.95
4410;BME280;2218;51.408;7.208;2023-04-15T08:32:14;99230.78;;;19.18;38.05
4410;BME280;2218;51.408;7.208;2023-04-15T08:34:42;99233.41;;;19.18;37.83
4410;BME280;2218;51.408;7.208;2023-04-15T08:37:09;99229.94;;;19.18;37.88
4410;BME280;2218;51.408;7.208;2023-04-15T08:39:36;99234.25;;;19.19;37.91
4410;BME280;2218;51.408;7.208;2023-04-15T08:42:10;99231.50;;;19.20;38.05
4410;BME280;2218;51.408;7.208;2023-04-15T08:44:38;99235.06;;;19.19;38.07
4410;BME280;2218;51.408;7.208;2023-04-15T08:47:07;99229.81;;;19.19;38.13
4410;BME280;2218;51.408;7.208;2023-04-15T08:49:39;99237.72;;;19.19;38.09
4410;BME280;2218;51.408;7.208;2023-04-15T08:52:08;99235.06;;;19.19;38.11
4410;BME280;2218;51.408;7.208;2023-04-15T08:54:35;99240.25;;;19.21;37.95
4410;BME280;2218;51.408;7.208;2023-04-15T08:57:03;99242.03;;;19.20;38.09
4410;BME280;2218;51.408;7.208;2023-04-15T08:59:31;99248.16;;;19.21;37.94
4410;BME280;2218;51.408;7.208;2023-04-15T09:01:58;99242.03;;;19.20;38.20
4410;BME280;2218;51.408;7.208;2023-04-15T09:04:27;99247.31;;;19.20;38.27
4410;BME280;2218;51.408;7.208;2023-04-15T09:06:53;99243.94;;;19.18;38.06
4410;BME280;2218;51.408;7.208;2023-04-15T09:09:23;99259.75;;;19.18;38.11
4410;BME280;2218;51.408;7.208;2023-04-15T09:11:50;99259.88;;;19.17;38.21
4410;BME280;2218;51.408;7.208;2023-04-15T09:14:17;99263.34;;;19.17;38.30
4410;BME280;2218;51.408;7.208;2023-04-15T09:16:57;99265.00;;;19.18;38.11
4410;BME280;2218;51.408;7.208;2023-04-15T09:19:25;99263.22;;;19.19;38.40
4410;BME280;2218;51.408;7.208;2023-04-15T09:21:54;99265.84;;;19.19;38.32
4410;BME280;2218;51.408;7.208;2023-04-15T09:24:24;99277.22;;;19.19;38.35
4410;BME280;2218;51.408;7.208;2023-04-15T09:26:52;99281.66;;;19.19;38.12
4410;BME280;2218;51.408;7.208;2023-04-15T09:29:25;99284.41;;;19.17;38.33
4410;BME280;2218;51.408;7.208;2023-04-15T09:31:52;99288.97;;;19.15;38.32
4410;BME280;2218;51.408;7.208;2023-04-15T09:34:19;99298.53;;;19.16;38.55
4410;BME280;2218;51.408;7.208;2023-04-15T09:36:54;99287.19;;;19.16;38.58
4410;BME280;2218;51.408;7.208;2023-04-15T09:39:23;99293.28;;;19.16;38.57
4410;BME280;2218;51.408;7.208;2023-04-15T09:42:04;99300.34;;;19.16;38.53
4410;BME280;2218;51.408;7.208;2023-04-15T09:44:32;99296.88;;;19.15;38.64
4410;BME280;2218;51.408;7.208;2023-04-15T09:46:59;99302.16;;;19.15;38.33
4410;BME280;2218;51.408;7.208;2023-04-15T09:49:27;99302.16;;;19.15;38.53
4410;BME280;2218;51.408;7.208;2023-04-15T09:51:59;99302.16;;;19.15;38.44
4410;BME280;2218;51.408;7.208;2023-04-15T09:54:35;99300.44;;;19.14;38.83
4410;BME280;2218;51.408;7.208;2023-04-15T09:57:06;99310.03;;;19.15;38.40
4410;BME280;2218;51.408;7.208;2023-04-15T09:59:33;99307.50;;;19.14;38.53
4410;BME280;2218;51.408;7.208;2023-04-15T10:02:04;99305.69;;;19.14;38.50
4410;BME280;2218;51.408;7.208;2023-04-15T10:04:35;99315.41;;;19.14;38.38
4410;BME280;2218;51.408;7.208;2023-04-15T10:07:04;99312.69;;;19.15;38.66
4410;BME280;2218;51.408;7.208;2023-04-15T10:09:34;99319.75;;;19.15;38.55
4410;BME280;2218;51.408;7.208;2023-04-15T10:12:03;99317.94;;;19.15;38.61
4410;BME280;2218;51.408;7.208;2023-04-15T10:14:33;99310.97;;;19.14;38.79
4410;BME280;2218;51.408;7.208;2023-04-15T10:17:03;99319.63;;;19.16;38.70
4410;BME280;2218;51.408;7.208;2023-04-15T10:19:33;99330.16;;;19.16;39.06
4410;BME280;2218;51.408;7.208;2023-04-15T10:22:02;99326.78;;;19.14;38.91
4410;BME280;2218;51.408;7.208;2023-04-15T10:24:30;99326.78;;;19.14;38.85
4410;BME280;2218;51.408;7.208;2023-04-15T10:26:59;99327.75;;;19.13;38.70
4410;BME280;2218;51.408;7.208;2023-04-15T10:29:29;99333.00;;;19.13;38.67
4410;BME280;2218;51.408;7.208;2023-04-15T10:31:58;99337.31;;;19.14;38.61
4410;BME280;2218;51.408;7.208;2023-04-15T10:34:26;99333.84;;;19.14;38.62
4410;BME280;2218;51.408;7.208;2023-04-15T10:36:55;99333.97;;;19.12;38.70
4410;BME280;2218;51.408;7.208;2023-04-15T10:39:39;99340.91;;;19.13;38.91
4410;BME280;2218;51.408;7.208;2023-04-15T10:42:09;99348.09;;;19.11;38.83
4410;BME280;2218;51.408;7.208;2023-04-15T10:44:37;99335.88;;;19.10;38.81
4410;BME280;2218;51.408;7.208;2023-04-15T10:47:10;99346.44;;;19.10;38.92
4410;BME280;2218;51.408;7.208;2023-04-15T10:49:47;99352.63;;;19.09;38.88
4410;BME280;2218;51.408;7.208;2023-04-15T10:52:16;99348.31;;;19.08;39.15
4410;BME280;2218;51.408;7.208;2023-04-15T10:54:44;99347.34;;;19.09;38.84
4410;BME280;2218;51.408;7.208;2023-04-15T10:57:21;99356.22;;;19.08;39.06
4410;BME280;2218;51.408;7.208;2023-04-15T11:00:12;99351.91;;;19.07;39.15
4410;BME280;2218;51.408;7.208;2023-04-15T11:02:46;99357.06;;;19.08;39.27
4410;BME280;2218;51.408;7.208;2023-04-15T11:05:14;99358.84;;;19.08;39.30
4410;BME280;2218;51.408;7.208;2023-04-15T11:07:51;99366.88;;;19.06;39.07
4410;BME280;2218;51.408;7.208;2023-04-15T11:10:52;99366.88;;;19.06;39.35
4410;BME280;2218;51.408;7.208;2023-04-15T11:13:23;99363.41;;;19.06;39.26
4410;BME280;2218;51.408;7.208;2023-04-15T11:15:57;99364.34;;;19.05;39.25
4410;BME280;2218;51.408;7.208;2023-04-15T11:18:31;99370.47;;;19.05;39.25
4410;BME280;2218;51.408;7.208;2023-04-15T11:21:03;99367.91;;;19.04;39.16
4410;BME280;2218;51.408;7.208;2023-04-15T11:23:36;99366.13;;;19.04;39.45
4410;BME280;2218;51.408;7.208;2023-04-15T11:26:06;99368.75;;;19.04;39.17
4410;BME280;2218;51.408;7.208;2023-04-15T11:28:39;99368.88;;;19.03;39.53
4410;BME280;2218;51.408;7.208;2023-04-15T11:31:09;99381.09;;;19.04;39.43
4410;BME280;2218;51.408;7.208;2023-04-15T11:33:44;99387.31;;;19.03;39.23
4410;BME280;2218;51.408;7.208;2023-04-15T11:36:11;99387.31;;;19.03;39.38
4410;BME280;2218;51.408;7.208;2023-04-15T11:38:42;99386.47;;;19.02;39.53
4410;BME280;2218;51.408;7.208;2023-04-15T11:41:10;99389.94;;;19.03;39.44
4410;BME280;2218;51.408;7.208;2023-04-15T11:43:39;99390.91;;;19.02;39.19
4410;BME280;2218;51.408;7.208;2023-04-15T11:46:06;99392.72;;;19.01;39.23
4410;BME280;2218;51.408;7.208;2023-04-15T11:48:35;99395.34;;;19.01;39.49
4410;BME280;2218;51.408;7.208;2023-04-15T11:51:04;99394.50;;;19.01;39.52
4410;BME280;2218;51.408;7.208;2023-04-15T11:53:40;99397.97;;;19.01;39.60
4410;BME280;2218;51.408;7.208;2023-04-15T11:56:10;99399.78;;;19.01;39.25
4410;BME280;2218;51.408;7.208;2023-04-15T11:58:39;99402.41;;;19.01;39.49
4410;BME280;2218;51.408;7.208;2023-04-15T12:01:07;99406.00;;;19.00;39.47
4410;BME280;2218;51.408;7.208;2023-04-15T12:03:38;99408.63;;;19.00;39.61
4410;BME280;2218;51.408;7.208;2023-04-15T12:06:13;99403.34;;;19.00;39.74
4410;BME280;2218;51.408;7.208;2023-04-15T12:08:51;99416.53;;;19.00;39.41
4410;BME280;2218;51.408;7.208;2023-04-15T12:11:19;99414.81;;;18.99;39.63
4410;BME280;2218;51.408;7.208;2023-04-15T12:13:49;99417.38;;;19.00;39.39
4410;BME280;2218;51.408;7.208;2023-04-15T12:16:17;99422.72;;;18.99;39.40
4410;BME280;2218;51.408;7.208;2023-04-15T12:18:45;99424.44;;;19.00;39.54
4410;BME280;2218;51.408;7.208;2023-04-15T12:21:13;99428.94;;;18.98;39.75
4410;BME280;2218;51.408;7.208;2023-04-15T12:23:48;99430.63;;;18.99;39.63
4410;BME280;2218;51.408;7.208;2023-04-15T12:26:15;99434.22;;;18.98;39.57
4410;BME280;2218;51.408;7.208;2023-04-15T12:28:42;99438.66;;;18.97;39.43
4410;BME280;2218;51.408;7.208;2023-04-15T12:31:13;99442.13;;;18.98;39.62
4410;BME280;2218;51.408;7.208;2023-04-15T12:33:40;99446.44;;;18.99;39.61
4410;BME280;2218;51.408;7.208;2023-04-15T12:36:07;99456.13;;;18.98;39.72
4410;BME280;2218;51.408;7.208;2023-04-15T12:38:34;99448.22;;;18.98;39.51
4410;BME280;2218;51.408;7.208;2023-04-15T12:41:01;99455.28;;;18.98;39.72
4410;BME280;2218;51.408;7.208;2023-04-15T12:43:28;99456.25;;;18.97;39.71
4410;BME280;2218;51.408;7.208;2023-04-15T12:45:55;99464.84;;;18.99;39.57
4410;BME280;2218;51.408;7.208;2023-04-15T12:48:23;99469.41;;;18.97;39.70
4410;BME280;2218;51.408;7.208;2023-04-15T12:50:50;99472.88;;;18.97;39.74
4410;BME280;2218;51.408;7.208;2023-04-15T12:53:17;99468.56;;;18.96;39.84
4410;BME280;2218;51.408;7.208;2023-04-15T12:55:44;99470.38;;;18.96;39.74
4410;BME280;2218;51.408;7.208;2023-04-15T12:58:11;99474.69;;;18.97;39.76
4410;BME280;2218;51.408;7.208;2023-04-15T13:00:38;99480.06;;;18.95;39.91
4410;BME280;2218;51.408;7.208;2023-04-15T13:03:05;99478.25;;;18.96;39.98
4410;BME280;2218;51.408;7.208;2023-04-15T13:05:33;99478.25;;;18.96;39.89
4410;BME280;2218;51.408;7.208;2023-04-15T13:08:01;99488.81;;;18.96;40.07
4410;BME280;2218;51.408;7.208;2023-04-15T13:10:29;99483.53;;;18.96;39.76
4410;BME280;2218;51.408;7.208;2023-04-15T13:12:56;99484.50;;;18.95;39.95
4410;BME280;2218;51.408;7.208;2023-04-15T13:15:23;99492.28;;;18.96;40.14
4410;BME280;2218;51.408;7.208;2023-04-15T13:17:50;99497.53;;;18.96;39.87
4410;BME280;2218;51.408;7.208;2023-04-15T13:20:17;99504.59;;;18.96;40.14
4410;BME280;2218;51.408;7.208;2023-04-15T13:22:45;99499.34;;;18.96;40.14
4410;BME280;2218;51.408;7.208;2023-04-15T13:25:12;99495.03;;;18.95;40.16
4410;BME280;2218;51.408;7.208;2023-04-15T13:27:39;99499.41;;;18.94;40.18
4410;BME280;2218;51.408;7.208;2023-04-15T13:30:07;99507.31;;;18.94;40.22